Elmwood, NE (68349)

8:34 PM CDT on August 24, 2016 (GMT -0500)
274th & Fletcher Ave | | Change Station

Elev 1290 ft 40.87 °N, 96.33 °W | Updated 26 seconds ago

Mostly Cloudy
Mostly Cloudy
67.3 °F
Feels Like 67.3 °F
N
0.0
Wind Variable Wind from West
Gusts 0.0 mph

Today
High -- | Low -- °F
--% Chance of Precip.
Yesterday
High -- | Low -- °F
Precip. -- in
Pressure 30.03 in
Visibility 10.0 miles
Clouds Mostly Cloudy 10000 ft
Dew Point 66 °F
Humidity 94%
Rainfall 2.36 in
Snow Depth Not available.
6:44 AM 8:09 PM
Waning Gibbous, 51% visible
METAR KPMV 250115Z AUTO 32003KT 10SM BKN100 21/19 A3003 RMK AO2 LTG DSNT SE AND S T02050188
Pressure 30.03 in
Visibility 10.0 miles
Clouds Mostly Cloudy 10000 ft
Dew Point 66 °F
Humidity 94%
Rainfall 2.36 in
Snow Depth Not available.
6:44 AM 8:09 PM
Waning Gibbous, 51% visible
METAR KPMV 250115Z AUTO 32003KT 10SM BKN100 21/19 A3003 RMK AO2 LTG DSNT SE AND S T02050188

10-Day Weather Forecast

Almanac

Astronomy

Aug. 24, 2016 Rise Set
Actual Time
Civil Twilight
Nautical Twilight
Astronomical Twilight
Moon
Length of Visible Light
Length of Day
Tomorrow will be .
, % of the Moon is Illuminated

Today's Extremes

State Highs State Lows

Community

WunderPhotos

Upload Photos

1,934,768 photos uploaded!

WunderBlog® & News

Nearby

Air Quality

  Air Quality AQ Index Pollutant
Not available.

Snow Depth

Station Depth Elevation

Earthquake Activity

City Distance Mag. Time & Date
Minimum magnitude displayed is 2.5.

Coastal Water Temperatures

Place Temperature

Stations

Nearby Weather Stations

Station Location Temp. Windchill Dew Point Humidity Wind Precip. Elev Updated Type
                   

Watches & Warnings

There are currently no watches in effect.